createdAt,value
2023-03-07T00:00:42.244Z,98788.38
2023-03-07T00:03:13.857Z,98790.84
2023-03-07T00:05:43.601Z,98791.16
2023-03-07T00:08:13.097Z,98786.91
2023-03-07T00:10:42.185Z,98796.44
2023-03-07T00:13:10.966Z,98805.16
2023-03-07T00:15:41.382Z,98813.81
2023-03-07T00:18:10.543Z,98817.47
2023-03-07T00:20:39.248Z,98824.47
2023-03-07T00:23:08.068Z,98816.56
2023-03-07T00:25:36.808Z,98815.75
2023-03-07T00:28:05.843Z,98819.94
2023-03-07T00:30:34.490Z,98821.56
2023-03-07T00:33:03.504Z,98822.44
2023-03-07T00:35:32.175Z,98840.66
2023-03-07T00:38:01.050Z,98832.03
2023-03-07T00:40:29.760Z,98836.34
2023-03-07T00:42:58.579Z,98839.00
2023-03-07T00:45:27.223Z,98833.84
2023-03-07T00:47:57.732Z,98835.50
2023-03-07T00:50:26.859Z,98839.97
2023-03-07T00:52:55.628Z,98841.00
2023-03-07T00:55:24.541Z,98848.84
2023-03-07T00:57:53.321Z,98846.44
2023-03-07T01:00:22.885Z,98848.97
2023-03-07T01:02:54.331Z,98850.75
2023-03-07T01:05:25.934Z,98850.25
2023-03-07T01:07:57.216Z,98853.91
2023-03-07T01:10:29.750Z,98864.25
2023-03-07T01:12:59.648Z,98859.13
2023-03-07T01:15:29.212Z,98860.88
2023-03-07T01:17:59.068Z,98864.34
2023-03-07T01:20:28.426Z,98864.34
2023-03-07T01:22:58.130Z,98872.84
2023-03-07T01:25:27.612Z,98871.97
2023-03-07T01:27:57.372Z,98874.47
2023-03-07T01:30:30.565Z,98876.34
2023-03-07T01:33:03.172Z,98880.94
2023-03-07T01:35:39.175Z,98884.06
2023-03-07T01:38:08.438Z,98885.25
2023-03-07T01:40:42.065Z,98886.78
2023-03-07T01:43:38.223Z,98893.25
2023-03-07T01:46:21.661Z,98891.00
2023-03-07T01:49:06.043Z,98891.91
2023-03-07T01:51:40.548Z,98889.44
2023-03-07T01:54:13.039Z,98898.06
2023-03-07T01:56:45.732Z,98891.72
2023-03-07T01:59:20.667Z,98895.91
2023-03-07T02:01:51.674Z,98907.94
2023-03-07T02:04:48.288Z,98897.88
2023-03-07T02:07:18.980Z,98905.00
2023-03-07T02:09:51.138Z,98906.38
2023-03-07T02:12:22.989Z,98908.84
2023-03-07T02:14:53.087Z,98911.47
2023-03-07T02:17:22.564Z,98920.47
2023-03-07T02:19:58.277Z,98913.06
2023-03-07T02:22:28.666Z,98914.94
2023-03-07T02:25:38.763Z,98915.81
2023-03-07T02:28:13.313Z,98924.63
2023-03-07T02:30:55.969Z,98925.91
2023-03-07T02:33:26.770Z,98933.03
2023-03-07T02:36:14.393Z,98934.22
2023-03-07T02:38:57.866Z,98946.16
2023-03-07T02:41:33.691Z,98945.84
2023-03-07T02:44:08.313Z,98949.31
2023-03-07T02:46:37.840Z,98945.63
2023-03-07T02:49:06.951Z,98952.22
2023-03-07T02:51:36.415Z,98955.38
2023-03-07T02:54:05.493Z,98954.25
2023-03-07T02:56:35.488Z,98957.38
2023-03-07T02:59:04.974Z,98968.34
2023-03-07T03:01:34.549Z,98963.91
2023-03-07T03:04:04.125Z,98969.53
2023-03-07T03:06:33.147Z,98963.19
2023-03-07T03:09:02.546Z,98972.50
2023-03-07T03:11:31.550Z,98977.59
2023-03-07T03:14:01.159Z,98975.50
2023-03-07T03:16:31.180Z,98973.41
2023-03-07T03:19:01.650Z,98985.38
2023-03-07T03:21:30.741Z,98982.28
2023-03-07T03:24:06.363Z,98988.16
2023-03-07T03:26:38.023Z,98987.50
2023-03-07T03:29:07.594Z,98994.25
2023-03-07T03:31:36.852Z,98990.41
2023-03-07T03:34:07.518Z,98999.56
2023-03-07T03:36:36.895Z,98992.34
2023-03-07T03:39:11.827Z,99008.47
2023-03-07T03:41:47.515Z,99002.00
2023-03-07T03:44:17.910Z,98998.94
2023-03-07T03:46:48.837Z,99011.69
2023-03-07T03:49:20.482Z,99011.28
2023-03-07T03:51:51.984Z,99018.16
2023-03-07T03:54:21.341Z,99013.81
2023-03-07T03:56:49.980Z,99019.28
2023-03-07T03:59:18.836Z,99024.03
2023-03-07T04:01:48.100Z,99028.81
2023-03-07T04:04:17.313Z,99025.59
2023-03-07T04:06:46.150Z,99031.13
2023-03-07T04:09:15.189Z,99029.69
2023-03-07T04:11:47.253Z,99033.00
2023-03-07T04:14:16.215Z,99037.44
2023-03-07T04:16:44.897Z,99040.72
2023-03-07T04:19:14.088Z,99032.41
2023-03-07T04:21:44.164Z,99032.06
2023-03-07T04:24:16.460Z,99034.53
2023-03-07T04:26:45.369Z,99030.75
2023-03-07T04:29:14.589Z,99032.38
2023-03-07T04:31:46.227Z,99036.28
2023-03-07T04:34:15.424Z,99031.66
2023-03-07T04:36:44.282Z,99039.66
2023-03-07T04:39:15.269Z,99041.88
2023-03-07T04:41:45.688Z,99042.13
2023-03-07T04:44:22.791Z,99041.31
2023-03-07T04:46:52.210Z,99039.88
2023-03-07T04:49:20.941Z,99038.75
2023-03-07T04:51:50.245Z,99045.63
2023-03-07T04:54:20.070Z,99041.63
2023-03-07T04:56:50.988Z,99040.72
2023-03-07T04:59:21.405Z,99045.75
2023-03-07T05:01:51.318Z,99040.78
2023-03-07T05:04:20.209Z,99048.41
2023-03-07T05:06:49.371Z,99051.56
2023-03-07T05:09:18.117Z,99055.44
2023-03-07T05:11:47.163Z,99049.09
2023-03-07T05:14:15.835Z,99049.16
2023-03-07T05:16:47.067Z,99058.47
2023-03-07T05:19:16.203Z,99055.84
2023-03-07T05:21:45.052Z,99052.16
2023-03-07T05:24:14.251Z,99048.53
2023-03-07T05:26:44.193Z,99052.75
2023-03-07T05:29:13.035Z,99048.25
2023-03-07T05:31:41.730Z,99046.28
2023-03-07T05:34:13.709Z,99047.94
2023-03-07T05:36:42.911Z,99046.66
2023-03-07T05:39:11.708Z,99047.03
2023-03-07T05:41:40.529Z,99045.00
2023-03-07T05:44:09.618Z,99046.75
2023-03-07T05:46:38.692Z,99050.63
2023-03-07T05:49:07.332Z,99049.59
2023-03-07T05:51:36.225Z,99055.75
2023-03-07T05:54:05.069Z,99052.59
2023-03-07T05:56:34.033Z,99055.91
2023-03-07T05:59:03.109Z,99058.16
2023-03-07T06:01:32.163Z,99057.34
2023-03-07T06:04:01.376Z,99053.81
2023-03-07T06:06:30.491Z,99057.88
2023-03-07T06:08:59.305Z,99050.16
2023-03-07T06:11:28.615Z,99056.28
2023-03-07T06:13:57.390Z,99049.56
2023-03-07T06:16:26.488Z,99049.69
2023-03-07T06:18:55.960Z,99054.50
2023-03-07T06:21:25.122Z,99050.03
2023-03-07T06:23:54.006Z,99044.94
2023-03-07T06:26:24.917Z,99044.09
2023-03-07T06:29:23.874Z,99039.00
2023-03-07T06:31:53.012Z,99033.00
2023-03-07T06:34:21.954Z,99027.63
2023-03-07T06:36:51.107Z,99025.22
2023-03-07T06:39:24.150Z,99028.13
2023-03-07T06:42:06.246Z,99015.94
2023-03-07T06:44:35.953Z,99022.00
2023-03-07T06:47:04.726Z,99019.06
2023-03-07T06:49:34.113Z,99019.28
2023-03-07T06:52:02.932Z,99015.13
2023-03-07T06:54:32.455Z,99003.13
2023-03-07T06:57:01.458Z,99009.03
2023-03-07T06:59:30.335Z,99005.06
2023-03-07T07:01:59.464Z,99008.00
2023-03-07T07:04:28.867Z,98997.22
2023-03-07T07:06:57.636Z,98996.09
2023-03-07T07:09:28.365Z,98992.56
2023-03-07T07:11:57.483Z,98989.94
2023-03-07T07:14:26.334Z,98981.47
2023-03-07T07:16:55.519Z,98986.81
2023-03-07T07:19:24.510Z,98975.25
2023-03-07T07:21:54.139Z,98975.34
2023-03-07T07:24:24.619Z,98964.34
2023-03-07T07:26:56.946Z,98966.88
2023-03-07T07:29:26.396Z,98963.97
2023-03-07T07:31:56.132Z,98964.72
2023-03-07T07:34:25.114Z,98954.81
2023-03-07T07:36:54.415Z,98945.91
2023-03-07T07:39:24.325Z,98942.88
2023-03-07T07:41:54.253Z,98942.72
2023-03-07T07:44:26.046Z,98940.19
2023-03-07T07:46:58.235Z,98930.28
2023-03-07T07:49:27.897Z,98927.25
2023-03-07T07:51:57.089Z,98926.69
2023-03-07T07:54:26.362Z,98918.81
2023-03-07T07:56:55.261Z,98924.13
2023-03-07T07:59:24.309Z,98923.50
2023-03-07T08:01:53.666Z,98907.03
2023-03-07T08:04:22.643Z,98906.75
2023-03-07T08:06:51.483Z,98904.38
2023-03-07T08:09:20.178Z,98905.03
2023-03-07T08:11:49.507Z,98898.53
2023-03-07T08:14:18.246Z,98899.34
2023-03-07T08:16:47.133Z,98894.66
2023-03-07T08:19:15.891Z,98890.22
2023-03-07T08:21:44.738Z,98884.69
2023-03-07T08:24:13.459Z,98893.56
2023-03-07T08:26:42.327Z,98885.75
2023-03-07T08:29:11.062Z,98882.81
2023-03-07T08:31:58.770Z,98871.88
2023-03-07T08:34:27.973Z,98876.31
2023-03-07T08:36:56.702Z,98876.34
2023-03-07T08:39:25.786Z,98863.31
2023-03-07T08:41:56.135Z,98863.06
2023-03-07T08:44:24.996Z,98860.06
2023-03-07T08:46:53.726Z,98855.91
2023-03-07T08:49:22.610Z,98853.50
2023-03-07T08:51:51.719Z,98851.06
2023-03-07T08:54:20.846Z,98850.66
2023-03-07T08:56:49.489Z,98846.44
2023-03-07T08:59:18.400Z,98839.22
2023-03-07T09:01:49.423Z,98841.06
2023-03-07T09:04:18.429Z,98841.78
2023-03-07T09:06:47.338Z,98825.94
2023-03-07T09:09:16.491Z,98821.31
2023-03-07T09:11:45.267Z,98828.59
2023-03-07T09:14:14.247Z,98830.16
2023-03-07T09:16:43.016Z,98818.25
2023-03-07T09:19:12.127Z,98820.03
2023-03-07T09:21:41.798Z,98819.63
2023-03-07T09:24:10.720Z,98829.59
2023-03-07T09:26:39.456Z,98818.44
2023-03-07T09:29:08.574Z,98825.59
2023-03-07T09:31:37.302Z,98809.47
2023-03-07T09:34:06.440Z,98805.78
2023-03-07T09:36:35.334Z,98807.94
2023-03-07T09:39:05.844Z,98798.53
2023-03-07T09:41:54.999Z,98795.53
2023-03-07T09:44:45.310Z,98800.16
2023-03-07T09:47:44.926Z,98798.16
2023-03-07T09:50:24.511Z,98791.25
2023-03-07T09:52:59.758Z,98794.31
2023-03-07T09:55:30.992Z,98791.06
2023-03-07T09:58:10.787Z,98778.97
2023-03-07T10:00:47.967Z,98780.88
2023-03-07T10:03:33.864Z,98778.72
2023-03-07T10:06:27.874Z,98770.06
2023-03-07T10:08:59.686Z,98772.94
2023-03-07T10:11:53.107Z,98769.25
2023-03-07T10:14:43.123Z,98767.13
2023-03-07T10:17:36.413Z,98768.50
2023-03-07T10:20:36.295Z,98766.69
2023-03-07T10:23:22.565Z,98763.31
2023-03-07T10:26:09.314Z,98760.69
2023-03-07T10:28:42.694Z,98754.06
2023-03-07T10:31:30.820Z,98751.31
2023-03-07T10:34:00.519Z,98746.53
2023-03-07T10:37:00.120Z,98746.38
2023-03-07T10:39:54.143Z,98742.78
2023-03-07T10:42:36.071Z,98749.69
2023-03-07T10:45:05.457Z,98742.25
2023-03-07T10:47:34.292Z,98739.06
2023-03-07T10:50:31.151Z,98739.03
2023-03-07T10:53:02.969Z,98738.56
2023-03-07T10:55:43.843Z,98734.41
2023-03-07T10:58:27.284Z,98730.00
2023-03-07T11:01:08.102Z,98724.72
2023-03-07T11:04:01.448Z,98720.50
2023-03-07T11:06:45.497Z,98725.69
2023-03-07T11:09:32.586Z,98718.25
2023-03-07T11:12:12.036Z,98719.56
2023-03-07T11:14:54.417Z,98717.22
2023-03-07T11:17:42.636Z,98724.50
2023-03-07T11:20:30.116Z,98722.31
2023-03-07T11:23:28.056Z,98716.09
2023-03-07T11:25:58.268Z,98714.84
2023-03-07T11:28:32.673Z,98709.56
2023-03-07T11:31:07.302Z,98721.28
2023-03-07T11:33:49.446Z,98711.56
2023-03-07T11:36:36.288Z,98713.94
2023-03-07T11:39:14.067Z,98706.56
2023-03-07T11:41:48.624Z,98703.66
2023-03-07T11:44:35.974Z,98707.72
2023-03-07T11:47:19.363Z,98698.34
2023-03-07T11:50:16.326Z,98701.88
2023-03-07T11:53:22.547Z,98690.28
2023-03-07T11:56:22.709Z,98694.75
2023-03-07T11:59:00.081Z,98701.47
2023-03-07T12:01:38.033Z,98689.31
2023-03-07T12:04:44.037Z,98687.72
2023-03-07T12:07:41.397Z,98689.59
2023-03-07T12:10:49.217Z,98685.38
2023-03-07T12:13:33.225Z,98687.28
2023-03-07T12:16:16.810Z,98685.78
2023-03-07T12:19:31.747Z,98688.00
2023-03-07T12:22:12.314Z,98698.19
2023-03-07T12:25:20.596Z,98700.81
2023-03-07T12:28:01.543Z,98693.78
2023-03-07T12:30:39.658Z,98691.63
2023-03-07T12:33:17.507Z,98707.13
2023-03-07T12:35:50.911Z,98698.13
2023-03-07T12:38:36.774Z,98701.81
2023-03-07T12:41:37.126Z,98707.13
2023-03-07T12:44:14.042Z,98699.13
2023-03-07T12:46:52.844Z,98703.44
2023-03-07T12:49:50.225Z,98702.59
2023-03-07T12:52:41.767Z,98705.59
2023-03-07T12:55:38.222Z,98716.97
2023-03-07T12:58:39.198Z,98712.09
2023-03-07T13:01:29.318Z,98712.97
2023-03-07T13:04:25.446Z,98708.09
2023-03-07T13:06:57.352Z,98711.00
2023-03-07T13:09:28.168Z,98711.38
2023-03-07T13:12:26.283Z,98712.91
2023-03-07T13:15:24.306Z,98712.03
2023-03-07T13:17:53.251Z,98713.56
2023-03-07T13:20:31.954Z,98717.75
2023-03-07T13:23:12.728Z,98716.34
2023-03-07T13:26:06.423Z,98711.78
2023-03-07T13:28:35.310Z,98725.38
2023-03-07T13:31:22.131Z,98720.09
2023-03-07T13:33:51.152Z,98730.06
2023-03-07T13:36:39.893Z,98727.22
2023-03-07T13:39:39.113Z,98724.16
2023-03-07T13:42:50.027Z,98732.22
2023-03-07T13:45:40.464Z,98737.56
2023-03-07T13:48:21.608Z,98736.53
2023-03-07T13:50:53.552Z,98741.16
2023-03-07T13:53:32.548Z,98740.41
2023-03-07T13:56:16.711Z,98749.53
2023-03-07T13:59:03.675Z,98753.09
2023-03-07T14:01:36.645Z,98755.31
2023-03-07T14:04:05.993Z,98757.81
2023-03-07T14:06:45.105Z,98758.66
2023-03-07T14:09:22.031Z,98761.00
2023-03-07T14:12:10.310Z,98764.16
2023-03-07T14:14:57.123Z,98765.06
2023-03-07T14:18:13.125Z,98762.19
2023-03-07T14:20:52.868Z,98763.78
2023-03-07T14:23:52.689Z,98769.19
2023-03-07T14:26:34.428Z,98775.22
2023-03-07T14:29:20.380Z,98775.06
2023-03-07T14:31:51.824Z,98770.59
2023-03-07T14:34:36.757Z,98779.31
2023-03-07T14:37:13.955Z,98780.38
2023-03-07T14:40:01.062Z,98779.56
2023-03-07T14:42:47.398Z,98773.78
2023-03-07T14:45:37.039Z,98780.00
2023-03-07T14:48:56.481Z,98787.25
2023-03-07T14:51:29.372Z,98789.22
2023-03-07T14:53:59.983Z,98788.13
2023-03-07T14:56:33.101Z,98800.34
2023-03-07T14:59:04.372Z,98794.25
2023-03-07T15:01:36.662Z,98806.84
2023-03-07T15:04:22.554Z,98797.03
2023-03-07T15:07:05.609Z,98791.28
2023-03-07T15:09:36.547Z,98790.03
2023-03-07T15:12:32.668Z,98795.22
2023-03-07T15:15:05.599Z,98797.69
2023-03-07T15:17:44.644Z,98796.97
2023-03-07T15:20:26.917Z,98792.72
2023-03-07T15:23:09.130Z,98794.78
2023-03-07T15:25:39.830Z,98796.66
2023-03-07T15:28:28.295Z,98801.06
2023-03-07T15:30:58.221Z,98801.47
2023-03-07T15:33:31.576Z,98799.50
2023-03-07T15:36:21.680Z,98798.16
2023-03-07T15:38:52.697Z,98802.38
2023-03-07T15:41:34.438Z,98801.19
2023-03-07T15:44:06.428Z,98811.22
2023-03-07T15:46:37.028Z,98805.63
2023-03-07T15:49:06.228Z,98812.03
2023-03-07T15:51:39.449Z,98809.00
2023-03-07T15:54:22.855Z,98807.38
2023-03-07T15:57:00.295Z,98811.81
2023-03-07T15:59:35.783Z,98808.66
2023-03-07T16:02:28.990Z,98809.19
2023-03-07T16:04:58.733Z,98803.19
2023-03-07T16:07:27.482Z,98804.22
2023-03-07T16:09:56.643Z,98813.13
2023-03-07T16:12:26.523Z,98814.03
2023-03-07T16:14:56.436Z,98808.09
2023-03-07T16:17:40.750Z,98814.22
2023-03-07T16:20:25.368Z,98815.47
2023-03-07T16:22:54.724Z,98823.16
2023-03-07T16:25:25.618Z,98824.88
2023-03-07T16:27:57.903Z,98825.72
2023-03-07T16:30:30.249Z,98826.69
2023-03-07T16:32:59.145Z,98835.94
2023-03-07T16:35:29.533Z,98840.28
2023-03-07T16:37:58.702Z,98830.13
2023-03-07T19:19:49.549Z,98875.25
2023-03-07T19:22:22.456Z,98873.78
2023-03-07T19:24:51.239Z,98877.19
2023-03-07T19:27:19.550Z,98872.13
2023-03-07T19:29:48.198Z,98879.19
2023-03-07T19:32:18.938Z,98879.19
2023-03-07T19:34:50.764Z,98877.44
2023-03-07T19:37:19.300Z,98882.72
2023-03-07T19:39:47.597Z,98881.00
2023-03-07T19:42:16.038Z,98883.59
2023-03-07T19:44:44.474Z,98886.41
2023-03-07T19:47:12.917Z,98893.34
2023-03-07T19:49:41.252Z,98884.38
2023-03-07T19:52:09.770Z,98883.72
2023-03-07T19:54:38.167Z,98891.72
2023-03-07T19:57:07.270Z,98888.28
2023-03-07T19:59:35.698Z,98882.25
2023-03-07T20:02:04.174Z,98889.22
2023-03-07T20:04:32.422Z,98883.16
2023-03-07T20:07:00.943Z,98886.66
2023-03-07T20:09:29.236Z,98885.75
2023-03-07T20:11:57.929Z,98885.09
2023-03-07T20:14:26.297Z,98893.72
2023-03-07T20:16:54.710Z,98889.59
2023-03-07T20:19:23.054Z,98883.69
2023-03-07T20:21:51.873Z,98889.19
2023-03-07T20:24:20.732Z,98896.44
2023-03-07T20:26:49.176Z,98886.91
2023-03-07T20:29:17.683Z,98886.13
2023-03-07T20:31:48.146Z,98879.06
2023-03-07T20:34:16.621Z,98880.25
2023-03-07T20:36:45.032Z,98878.59
2023-03-07T20:39:15.459Z,98873.28
2023-03-07T20:41:44.621Z,98865.06
2023-03-07T20:44:14.291Z,98867.75
2023-03-07T20:46:43.146Z,98868.50
2023-03-07T20:49:13.273Z,98872.59
2023-03-07T20:51:42.381Z,98876.19
2023-03-07T20:54:15.225Z,98874.97
2023-03-07T20:56:44.832Z,98867.94
2023-03-07T20:59:14.164Z,98868.63
2023-03-07T21:01:43.147Z,98870.56
2023-03-07T21:04:13.180Z,98876.63
2023-03-07T21:06:43.798Z,98878.34
2023-03-07T21:09:13.772Z,98878.97
2023-03-07T21:11:46.597Z,98879.16
2023-03-07T21:14:16.101Z,98882.47
2023-03-07T21:16:44.849Z,98885.88
2023-03-07T21:19:14.005Z,98880.09
2023-03-07T21:21:43.412Z,98886.31
2023-03-07T21:24:13.214Z,98887.56
2023-03-07T21:26:41.473Z,98880.97
2023-03-07T21:29:11.723Z,98882.44
2023-03-07T21:31:40.370Z,98877.00
2023-03-07T21:34:09.442Z,98867.81
2023-03-07T21:36:38.134Z,98874.31
2023-03-07T21:39:08.671Z,98872.56
2023-03-07T21:41:37.582Z,98864.66
2023-03-07T21:44:06.555Z,98872.69
2023-03-07T21:46:35.660Z,98883.16
2023-03-07T21:49:04.237Z,98878.56
2023-03-07T21:51:33.126Z,98875.94
2023-03-07T21:54:01.712Z,98870.88
2023-03-07T21:56:30.470Z,98867.47
2023-03-07T21:58:58.882Z,98876.34
2023-03-07T22:01:29.038Z,98877.00
2023-03-07T22:03:59.431Z,98871.91
2023-03-07T22:06:28.658Z,98873.63
2023-03-07T22:08:57.027Z,98881.63
2023-03-07T22:11:25.648Z,98878.38
2023-03-07T22:13:53.875Z,98882.66
2023-03-07T22:16:22.579Z,98878.28
2023-03-07T22:18:54.873Z,98881.00
2023-03-07T22:21:25.819Z,98883.78
2023-03-07T22:23:58.567Z,98883.78
2023-03-07T22:26:27.741Z,98883.06
2023-03-07T22:28:56.421Z,98877.13
2023-03-07T22:31:25.239Z,98878.81
2023-03-07T22:33:53.618Z,98873.31
2023-03-07T22:36:22.240Z,98868.09
2023-03-07T22:38:54.218Z,98872.69
2023-03-07T22:41:23.581Z,98871.53
2023-03-07T22:43:53.342Z,98867.38
2023-03-07T22:46:22.101Z,98876.06
2023-03-07T22:48:52.709Z,98875.19
2023-03-07T22:51:22.123Z,98879.16
2023-03-07T22:53:50.831Z,98879.16
2023-03-07T22:56:20.664Z,98885.31
2023-03-07T22:58:49.176Z,98889.72
2023-03-07T23:01:22.266Z,98889.56
2023-03-07T23:03:51.449Z,98884.88
2023-03-07T23:06:20.289Z,98885.72
2023-03-07T23:08:50.516Z,98885.66
2023-03-07T23:11:19.940Z,98887.63
2023-03-07T23:13:48.580Z,98890.88
2023-03-07T23:16:18.562Z,98889.19
2023-03-07T23:18:47.234Z,98903.75
2023-03-07T23:21:16.635Z,98902.19
2023-03-07T23:23:45.567Z,98896.38
2023-03-07T23:26:18.733Z,98892.69
2023-03-07T23:28:47.388Z,98890.94
2023-03-07T23:31:18.742Z,98892.75
2023-03-07T23:33:47.340Z,98897.00
2023-03-07T23:36:15.955Z,98897.16
2023-03-07T23:38:47.850Z,98896.41
2023-03-07T23:41:17.376Z,98907.63
2023-03-07T23:43:47.163Z,98900.56
2023-03-07T23:46:15.832Z,98908.31
2023-03-07T23:48:44.090Z,98907.31
2023-03-07T23:51:12.761Z,98904.72
2023-03-07T23:53:41.194Z,98903.81
2023-03-07T23:56:10.621Z,98903.97
2023-03-07T23:58:39.286Z,98910.91
